KLTS/LTS METAR and TAF weather

Enter ICAO airport designator
Station Type Date Time Source
KLTS METAR 2019/10/15 20:56 UTC NOAA

KLTS 152056Z 01019G26KT 9SM CLR 24/11 A2993 RMK AO2A PK WND 34033/05 SLP125 T02440113 53010 $


Station Type Date Time Source
KLTS Decoded METAR 2019/10/15 20:56 UTC NOAA

Altus Air Force Base, OK, United States (KLTS) 34-39N 099-16W 420M
Oct 15, 2019 - 04:56 PM EDT / 2019.10.15 2056 UTC
Wind: from the N (010 degrees) at 22 MPH (19 KT) gusting to 30 MPH (26 KT):0
Visibility: 9 mile(s):0
Sky conditions: clear
Temperature: 75.9 F (24.4 C)
Dew Point: 52.3 F (11.3 C)
Relative Humidity: 43%
Pressure (altimeter): 29.93 in. Hg (1013 hPa)
Pressure tendency: 0.03 inches (1.0 hPa) higher than three hours ago
ob: KLTS 152056Z 01019G26KT 9SM CLR 24/11 A2993 RMK AO2A PK WND 34033/05 SLP125 T02440113 53010
cycle: 21

Station Type Date Time Source
KLTS TAF 2019/10/15 21:15 UTC NOAA

TAF
AMD KLTS 152115Z 1521/1623 36015G25KT 9999 FEW180 QNH2988INS
BECMG 1523/1524 01015G25KT 9999 SKC QNH2999INS
BECMG 1600/1601 02012KT 9999 SKC 510053 QNH3001INS
BECMG 1607/1608 02006KT 9999 SKC 510053 QNH3011INS TX24/1521Z TN08/1613Z

Example: see airport list